Terminal Aerodrome Forecast
Issued by NWS Cleveland, OH

Home | Current Version | Previous Version | Graphics & Text | Print | Product List | Glossary On
Versions: 1 2 3 4 5 6 7 8 9 10 11 12 13 14 15 16 17 18 19 20 21 22 23 24 25 26 27 28
000
FTUS41 KCLE 151900 AAB
TAFCAK
TAF AMD
KCAK 151956Z 1520/1618 14005KT 6SM HZ BKN015
      TEMPO 1521/1523 5SM HZ SCT015 BKN250
     FM152300 14005KT 6SM HZ SCT020 BKN250
     FM160600 12007KT 5SM -RA BR BKN040
     FM161100 16009KT 3SM -RA BR OVC010
     FM161700 21010KT 3SM -RA BR OVC009=

USA.gov is the U.S. government's official web portal to all federal, state and local government web resources and services.